Flight Track Log - Related Links

Times and Time Zones

All times are in EDT time to prevent confusion due to time zone crossing. See the AWE648 flight status page for this flight to view local times or setup timezone preferences in your user account.

Time Position Orientation Groundspeed Altitude Reporting Facility
EDT Latitude Longitude Course Direction KTS MPH feet Rate Location/Type
Tue 09:20:27 AM 37.6333 -122.3667 72° East 162 186 1,000  Level Northern Cal TRACON
Tue 09:21:27 AM 37.6500 -122.3000 72° East 186 214 3,000 1,889 Climbing Northern Cal TRACON
Tue 09:22:15 AM 37.6500 -122.2500 90° East 233 268 4,400 2,167 Climbing Northern Cal TRACON
Tue 09:23:00 AM 37.9437 -122.3111 80° East  Level FlightAware Approximate
Tue 09:23:15 AM 37.6500 -122.1500 90° East 257 296 6,900  Level Northern Cal TRACON
Tue 09:24:00 AM 37.9598 -122.1494 84° East  Level FlightAware Approximate
Tue 09:24:20 AM 37.6778 -122.0786 64° Northeast 272 313 9,400  Level Oakland Center
Tue 09:25:00 AM 37.9698 -121.9874 72° East  Level FlightAware Approximate
Tue 09:25:20 AM 37.7228 -121.9603 64° Northeast 314 361 11,300  Level Oakland Center
Tue 09:26:21 AM 37.7639 -121.8469 65° Northeast 352 405 13,900 2,281 Climbing Oakland Center
Tue 09:27:21 AM 37.8072 -121.7322 64° Northeast 362 417 15,900 1,983 Climbing Oakland Center
Tue 09:28:22 AM 37.8525 -121.6111 65° Northeast 378 435 17,900 2,066 Climbing Oakland Center
Tue 09:29:23 AM 37.8811 -121.4814 74° East 389 448 20,100 1,934 Climbing Oakland Center
Tue 09:30:23 AM 37.9025 -121.3578 78° East 390 449 21,800 1,587 Climbing Oakland Center
Tue 09:31:24 AM 37.9256 -121.2239 78° East 393 452 23,300 1,475 Climbing Oakland Center
Tue 09:32:25 AM 37.9489 -121.0858 78° East 400 460 24,800 836 Climbing Oakland Center
Tue 09:33:26 AM 37.9731 -120.9436 78° East 414 476 25,000 1,055 Climbing Oakland Center
Tue 09:35:27 AM 38.0256 -120.6256 78° East 411 473 28,000 989 Climbing Oakland Center
Tue 09:36:28 AM 38.0478 -120.4836 79° East 410 472 28,000 443 Level Oakland Center
Tue 09:37:29 AM 38.0617 -120.3378 83° East 421 484 28,900 942 Climbing Oakland Center
Tue 09:38:29 AM 38.0736 -120.1892 84° East 424 488 29,900 1,140 Climbing Oakland Center
Tue 09:39:30 AM 38.0842 -120.0403 85° East 423 487 31,200 1,082 Climbing Oakland Center
Tue 09:40:31 AM 38.0958 -119.8914 84° East 425 489 32,100 689 Climbing Oakland Center
Tue 09:41:32 AM 38.1056 -119.7411 85° East 428 493 32,600 639 Climbing Oakland Center
Tue 09:42:33 AM 38.1158 -119.5878 85° East 435 501 33,400 689 Climbing Oakland Center
Tue 09:43:34 AM 38.1231 -119.4317 87° East 441 507 34,000 639 Climbing Oakland Center
Tue 09:44:35 AM 38.1336 -119.2750 85° East 444 511 34,700 328 Climbing Oakland Center
Tue 09:46:37 AM 38.1536 -118.9556 85° East 445 512 35,000 99 Climbing Oakland Center
Tue 09:47:37 AM 38.1636 -118.7972 85° East 450 518 35,000  Level Oakland Center
Tue 09:48:38 AM 38.1722 -118.6381 86° East 453 521 35,000  Level Oakland Center
Tue 09:49:39 AM 38.1833 -118.4486 86° East 451 519 35,000  Level Oakland Center
Tue 09:50:40 AM 38.1917 -118.2906 86° East 450 518 35,000  Level Oakland Center
Tue 09:51:41 AM 38.2003 -118.1331 86° East 449 517 35,000  Level Oakland Center
Tue 09:52:42 AM 38.2092 -117.9717 86° East 454 522 35,000  Level Oakland Center
Tue 09:53:43 AM 38.2164 -117.8092 87° East 458 527 35,000  Level Oakland Center
Tue 09:54:44 AM 38.2253 -117.6481 86° East 457 526 35,000  Level Oakland Center
Tue 09:55:45 AM 38.2325 -117.4861 87° East 456 525 35,000  Level Oakland Center
Tue 09:56:46 AM 38.2397 -117.3292 87° East 456 525 35,000  Level Oakland Center
Tue 09:57:47 AM 38.2469 -117.1683 87° East 457 526 35,000  Level Oakland Center
Tue 09:58:48 AM 38.2544 -116.9936 87° East 454 522 35,000  Level Oakland Center
Tue 09:59:49 AM 38.2617 -116.8317 87° East 454 522 35,000  Level Oakland Center
Tue 10:00:50 AM 38.2678 -116.6708 87° East 454 522 35,000  Level Oakland Center
Tue 10:01:51 AM 38.2742 -116.5092 87° East 455 524 35,000  Level Oakland Center
Tue 10:03:02 AM 38.2819 -116.3142 87° East 459 528 35,000  Level Salt Lake Center
Tue 10:04:03 AM 38.2881 -116.1514 87° East 460 529 35,000  Level Salt Lake Center
Tue 10:05:05 AM 38.2939 -115.9889 87° East 460 529 35,000  Level Salt Lake Center
Tue 10:06:06 AM 38.3000 -115.8264 87° East 459 528 35,000  Level Salt Lake Center
Tue 10:07:08 AM 38.3050 -115.6619 88° East 464 534 35,000  Level Salt Lake Center
Tue 10:08:09 AM 38.3100 -115.4969 88° East 467 537 35,000  Level Salt Lake Center
Tue 10:09:11 AM 38.3161 -115.3011 88° East 468 539 35,000  Level Salt Lake Center
Tue 10:10:13 AM 38.3211 -115.1358 88° East 469 540 35,000  Level Salt Lake Center
Tue 10:11:14 AM 38.3258 -114.9706 88° East 469 540 35,000  Level Salt Lake Center
Tue 10:12:16 AM 38.3300 -114.8056 88° East 468 539 35,000  Level Salt Lake Center
Tue 10:13:18 AM 38.3328 -114.6394 89° East 470 541 35,000  Level Salt Lake Center
Tue 10:14:19 AM 38.3372 -114.4733 88° East 470 541 35,000  Level Salt Lake Center
Tue 10:15:21 AM 38.3411 -114.3067 88° East 471 542 35,000  Level Salt Lake Center
Tue 10:16:23 AM 38.3450 -114.1422 88° East 466 536 35,000  Level Salt Lake Center
Tue 10:17:24 AM 38.3478 -113.9433 89° East 467 537 35,000  Level Salt Lake Center
Tue 10:18:26 AM 38.3514 -113.7769 88° East 470 541 35,000  Level Salt Lake Center
Tue 10:19:28 AM 38.3544 -113.6108 89° East 470 541 35,000  Level Salt Lake Center
Tue 10:20:29 AM 38.3561 -113.4450 89° East 469 540 35,000  Level Salt Lake Center
Tue 10:21:31 AM 38.3589 -113.2783 89° East 469 540 35,000  Level Salt Lake Center
Tue 10:22:33 AM 38.3600 -113.1106 89° East 472 543 35,000  Level Salt Lake Center
Tue 10:23:34 AM 38.3769 -112.9433 83° East 474 545 35,000  Level Salt Lake Center
Tue 10:24:36 AM 38.4144 -112.7800 74° East 477 549 35,000  Level Salt Lake Center
Tue 10:25:38 AM 38.4572 -112.5839 74° East 476 548 35,000  Level Salt Lake Center
Tue 10:26:40 AM 38.4936 -112.4247 74° East 470 541 35,000 -48 Level Salt Lake Center
Tue 10:27:42 AM 38.5289 -112.2650 74° East 467 537 34,900  Descending Salt Lake Center
Tue 10:28:44 AM 38.5358 -112.0972 87° East 470 541 35,000 49 Climbing Salt Lake Center
Tue 10:29:45 AM 38.5400 -111.9278 88° East 474 545 35,000  Level Salt Lake Center
Tue 10:30:47 AM 38.5450 -111.7589 88° East 476 548 35,000  Level Salt Lake Center
Tue 10:31:49 AM 38.5506 -111.5911 88° East 475 547 35,000  Level Salt Lake Center
Tue 10:32:51 AM 38.5558 -111.3914 88° East 470 541 35,000 -48 Level Salt Lake Center
Tue 10:33:53 AM 38.5622 -111.2253 87° East 469 540 34,900  Descending Salt Lake Center
Tue 10:34:55 AM 38.5678 -111.0583 88° East 472 543 35,000 48 Climbing Salt Lake Center
Tue 10:35:57 AM 38.5858 -110.8736 83° East 479 551 35,000  Level Salt Lake Center
Tue 10:36:58 AM 38.6189 -110.7161 75° East 481 554 35,000  Level Salt Lake Center
Tue 10:38:00 AM 38.6508 -110.5569 76° East 482 555 35,000  Level Salt Lake Center
Tue 10:39:02 AM 38.6869 -110.3717 76° East 482 555 35,000  Level Salt Lake Center
Tue 10:39:32 AM 38.7019 -110.2922 76° East 479 551 35,000  Level Denver Center
Tue 10:40:34 AM 38.7372 -110.1075 76° East 479 551 35,000  Level Denver Center
Tue 10:41:06 AM 38.7536 -110.0297 75° East 479 551 35,000  Level Salt Lake Center
Tue 10:42:08 AM 38.7842 -109.8689 76° East 483 556 35,000  Level Salt Lake Center
Tue 10:42:38 AM 38.7981 -109.7881 78° East 483 556 35,000  Level Denver Center
Tue 10:43:41 AM 38.8336 -109.6028 76° East 481 554 35,000  Level Denver Center
Tue 10:44:43 AM 38.8625 -109.4408 77° East 484 557 35,000  Level Denver Center
Tue 10:45:45 AM 38.8969 -109.2544 77° East 481 554 35,000  Level Denver Center
Tue 10:46:47 AM 38.9269 -109.0953 76° East 481 554 35,000  Level Denver Center
Tue 10:47:49 AM 38.9625 -108.9089 76° East 482 555 35,000  Level Denver Center
Tue 10:48:51 AM 38.9908 -108.7483 77° East 483 556 35,000  Level Denver Center
Tue 10:49:53 AM 39.0247 -108.5611 77° East 484 557 35,000  Level Denver Center
Tue 10:50:55 AM 39.0542 -108.4011 77° East 483 556 35,000  Level Denver Center
Tue 10:51:57 AM 39.0872 -108.2117 77° East 486 559 35,000  Level Denver Center
Tue 10:52:59 AM 39.1150 -108.0519 77° East 481 554 35,000  Level Denver Center
Tue 10:54:01 AM 39.1489 -107.8644 77° East 484 557 35,000  Level Denver Center
Tue 10:55:03 AM 39.1750 -107.7042 78° East 481 554 35,000  Level Denver Center
Tue 10:56:05 AM 39.2078 -107.5164 77° East 482 555 35,000  Level Denver Center
Tue 10:57:07 AM 39.2347 -107.3542 78° East 484 557 35,000  Level Denver Center
Tue 10:58:09 AM 39.2667 -107.1642 78° East 484 557 35,000  Level Denver Center
Tue 10:59:11 AM 39.2942 -107.0017 78° East 485 558 35,000  Level Denver Center
Tue 11:00:13 AM 39.3256 -106.8133 78° East 481 554 35,000  Level Denver Center
Tue 11:01:15 AM 39.3506 -106.6514 79° East 480 552 35,000  Level Denver Center
Tue 11:02:17 AM 39.3808 -106.4594 78° East 487 560 35,000  Level Denver Center
Tue 11:03:19 AM 39.4072 -106.2961 78° East 487 560 35,000  Level Denver Center
Tue 11:04:21 AM 39.4339 -106.1211 79° East 484 557 35,000  Level Denver Center
Tue 11:05:23 AM 39.4608 -105.9486 79° East 484 557 35,000  Level Denver Center
Tue 11:06:25 AM 39.4900 -105.7756 78° East 489 563 35,000  Level Denver Center
Tue 11:07:27 AM 39.5186 -105.5761 79° East 475 547 35,000  Level Denver Center
Tue 11:08:29 AM 39.5447 -105.4036 79° East 481 554 35,000  Level Denver Center
Tue 11:09:31 AM 39.5692 -105.2344 79° East 475 547 35,000  Level Denver Center
Tue 11:10:33 AM 39.5947 -105.0631 79° East 482 555 35,000  Level Denver Center
Tue 11:11:35 AM 39.6183 -104.8942 80° East 470 541 35,000  Level Denver Center
Tue 11:12:37 AM 39.6447 -104.7111 79° East 496 571 35,000  Level Denver Center
Tue 11:13:39 AM 39.6700 -104.5428 79° East 467 537 35,000  Level Denver Center
Tue 11:14:41 AM 39.6933 -104.3722 80° East 465 535 35,000  Level Denver Center
Tue 11:15:44 AM 39.7161 -104.2044 80° East 470 541 35,000  Level Denver Center
Tue 11:16:46 AM 39.7386 -104.0400 80° East 454 522 35,000  Level Denver Center
Tue 11:17:48 AM 39.7614 -103.8728 80° East 463 533 35,000  Level Denver Center
Tue 11:18:50 AM 39.7875 -103.6822 80° East 451 519 35,000  Level Denver Center
Tue 11:19:52 AM 39.8094 -103.5167 80° East 457 526 35,000  Level Denver Center
Tue 11:20:54 AM 39.8319 -103.3492 80° East 465 535 35,000  Level Denver Center
Tue 11:21:56 AM 39.8536 -103.1819 80° East 465 535 35,000  Level Denver Center
Tue 11:22:58 AM 39.8744 -103.0133 81° East 468 539 35,000  Level Denver Center
Tue 11:24:00 AM 39.8961 -102.8461 80° East 465 535 35,000  Level Denver Center
Tue 11:25:02 AM 39.9167 -102.6789 81° East 465 535 35,000  Level Denver Center
Tue 11:26:04 AM 39.9414 -102.4850 80° East 462 532 35,000  Level Denver Center
Tue 11:27:06 AM 39.9611 -102.3161 81° East 467 537 35,000  Level Denver Center
Tue 11:28:08 AM 39.9817 -102.1489 81° East 465 535 35,000  Level Denver Center
Tue 11:29:10 AM 40.0025 -101.9786 81° East 469 540 35,000  Level Denver Center
Tue 11:30:12 AM 40.0178 -101.8106 83° East 465 535 35,000  Level Denver Center
Tue 11:31:14 AM 40.0344 -101.6364 83° East 468 539 35,000  Level Denver Center
Tue 11:32:16 AM 40.0522 -101.4492 83° East 466 536 35,000  Level Denver Center
Tue 11:33:18 AM 40.0678 -101.2878 83° East 467 537 35,000  Level Denver Center
Tue 11:34:20 AM 40.0817 -101.1275 83° East 465 535 35,000  Level Denver Center
Tue 11:35:22 AM 40.0989 -100.9356 83° East 468 539 35,000  Level Denver Center
Tue 11:36:24 AM 40.1133 -100.7683 84° East 465 535 35,000  Level Denver Center
Tue 11:37:26 AM 40.1275 -100.6003 84° East 466 536 35,000  Level Denver Center
Tue 11:38:28 AM 40.1419 -100.4333 83° East 465 535 35,000  Level Denver Center
Tue 11:39:30 AM 40.1561 -100.2631 84° East 470 541 35,000  Level Denver Center
Tue 11:40:32 AM 40.1728 -100.0619 84° East 467 537 35,000  Level Denver Center
Tue 11:41:35 AM 40.1864 -99.8953 84° East 464 534 35,000  Level Denver Center
Tue 11:42:37 AM 40.1992 -99.7278 84° East 464 534 35,000  Level Denver Center
Tue 11:43:39 AM 40.2122 -99.5592 84° East 465 535 35,000  Level Denver Center
Tue 11:44:41 AM 40.2247 -99.3903 84° East 468 539 35,000  Level Denver Center
Tue 11:45:43 AM 40.2369 -99.2203 85° East 469 540 35,000  Level Denver Center
Tue 11:46:45 AM 40.2517 -99.0181 84° East 468 539 35,000  Level Denver Center
Tue 11:47:47 AM 40.2631 -98.8508 85° East 466 536 35,000  Level Denver Center
Tue 11:48:38 AM 40.2728 -98.7183 84° East 464 534 35,000  Level Minneapolis Center
Tue 11:49:40 AM 40.2836 -98.5494 85° East 466 536 35,000  Level Minneapolis Center
Tue 11:50:42 AM 40.2950 -98.3811 85° East 466 536 35,000  Level Minneapolis Center
Tue 11:51:44 AM 40.3075 -98.1792 85° East 466 536 35,000  Level Minneapolis Center
Tue 11:52:46 AM 40.3183 -98.0117 85° East 464 534 35,000  Level Minneapolis Center
Tue 11:53:48 AM 40.3286 -97.8447 85° East 463 533 35,000  Level Minneapolis Center
Tue 11:54:49 AM 40.3372 -97.7114 85° East 461 531 35,000  Level Minneapolis Center
Tue 11:55:52 AM 40.3486 -97.5114 86° East 460 529 35,000  Level Minneapolis Center
Tue 11:56:54 AM 40.3597 -97.3167 86° East 460 529 35,000  Level Minneapolis Center
Tue 11:57:55 AM 40.3692 -97.1500 86° East 461 531 35,000 195 Level Minneapolis Center
Tue 11:58:57 AM 40.3769 -97.0161 86° East 461 531 35,400 677 Climbing Minneapolis Center
Tue 11:59:59 AM 40.3872 -96.8136 86° East 464 534 36,400 774 Climbing Minneapolis Center
Tue 12:01:01 PM 40.3956 -96.6442 86° East 466 536 37,000 290 Climbing Minneapolis Center
Tue 12:02:03 PM 40.4044 -96.4736 86° East 469 540 37,000  Level Minneapolis Center
Tue 12:03:05 PM 40.4144 -96.2678 86° East 473 544 37,000  Level Minneapolis Center
Tue 12:04:07 PM 40.4225 -96.0972 86° East 471 542 37,000  Level Minneapolis Center
Tue 12:05:09 PM 40.4311 -95.9258 86° East 473 544 37,000  Level Minneapolis Center
Tue 12:06:10 PM 40.4364 -95.7889 87° East 473 544 37,000  Level Minneapolis Center
Tue 12:07:13 PM 40.4450 -95.5883 87° East 465 535 37,000  Level Minneapolis Center
Tue 12:08:14 PM 40.4517 -95.4206 87° East 462 532 37,000  Level Minneapolis Center
Tue 12:09:16 PM 40.4611 -95.2200 86° East 461 531 37,000  Level Minneapolis Center
Tue 12:10:18 PM 40.4672 -95.0522 87° East 461 531 37,000  Level Minneapolis Center
Tue 12:11:20 PM 40.4714 -94.8861 88° East 458 527 37,000  Level Minneapolis Center
Tue 12:12:22 PM 40.4794 -94.7172 86° East 462 532 37,000  Level Minneapolis Center
Tue 12:13:24 PM 40.4828 -94.5842 88° East 460 529 37,000  Level Minneapolis Center
Tue 12:14:26 PM 40.4900 -94.3636 87° East 463 533 37,000  Level Minneapolis Center
Tue 12:15:28 PM 40.4942 -94.2306 88° East 461 531 37,000  Level Minneapolis Center
Tue 12:16:42 PM 40.5000 -94.0303 88° East 461 531 37,000  Level Minneapolis Center
Tue 12:17:44 PM 40.5022 -93.8342 89° East 455 524 37,000  Level Minneapolis Center
Tue 12:18:46 PM 40.5017 -93.6369 90° East 453 521 37,000  Level Minneapolis Center
Tue 12:19:48 PM 40.5039 -93.4728 89° East 452 520 37,000  Level Minneapolis Center
Tue 12:20:47 PM 40.5033 -93.3106 90° East 447 514 37,000  Level Kansas City Center
Tue 12:21:49 PM 40.5025 -93.1486 90° East 447 514 37,000  Level Kansas City Center
Tue 12:22:51 PM 40.5036 -92.9839 89° East 445 512 37,000  Level Kansas City Center
Tue 12:23:53 PM 40.5039 -92.8011 90° East 446 513 37,000  Level Kansas City Center
Tue 12:24:55 PM 40.5044 -92.6478 90° East 449 517 37,000  Level Kansas City Center
Tue 12:25:57 PM 40.5033 -92.4839 90° East 450 518 37,000  Level Kansas City Center
Tue 12:26:59 PM 40.5028 -92.3267 90° East 449 517 37,000  Level Kansas City Center
Tue 12:28:01 PM 40.5006 -92.1308 91° East 449 517 37,000  Level Kansas City Center
Tue 12:29:03 PM 40.4992 -91.9667 91° East 451 519 37,000  Level Kansas City Center
Tue 12:30:05 PM 40.5017 -91.8039 89° East 450 518 37,000  Level Kansas City Center
Tue 12:31:07 PM 40.5044 -91.6417 89° East 449 517 37,000  Level Kansas City Center
Tue 12:32:09 PM 40.5075 -91.4789 89° East 449 517 37,000  Level Kansas City Center
Tue 12:32:50 PM 40.5097 -91.3492 89° East 449 517 37,000  Level Chicago Center
Tue 12:33:52 PM 40.5108 -91.1733 89° East 452 520 37,000  Level Chicago Center
Tue 12:34:55 PM 40.5136 -91.0103 89° East 448 516 37,000  Level Chicago Center
Tue 12:35:56 PM 40.5136 -90.8475 90° East 447 514 37,000  Level Chicago Center
Tue 12:36:58 PM 40.5153 -90.6850 89° East 445 512 37,000  Level Chicago Center
Tue 12:38:00 PM 40.5161 -90.5233 90° East 443 510 37,000  Level Chicago Center
Tue 12:39:02 PM 40.5169 -90.3300 90° East 444 511 37,000  Level Chicago Center
Tue 12:40:04 PM 40.5167 -90.1847 90° East 441 507 37,000  Level Chicago Center
Tue 12:41:06 PM 40.5164 -90.0269 90° East 437 503 37,000  Level Chicago Center
Tue 12:42:08 PM 40.5153 -89.8383 90° East 434 499 37,000  Level Chicago Center
Tue 12:43:10 PM 40.5147 -89.6803 90° East 435 501 37,000  Level Chicago Center
Tue 12:44:12 PM 40.5150 -89.5133 90° East 436 502 37,000  Level Chicago Center
Tue 12:45:14 PM 40.5147 -89.3567 90° East 434 499 37,000 387 Level Chicago Center
Tue 12:46:16 PM 40.5297 -89.2025 83° East 433 498 37,800 484 Climbing Chicago Center
Tue 12:47:18 PM 40.5600 -89.0483 75° East 436 502 38,000 480 Climbing Chicago Center
Tue 12:48:21 PM 40.5894 -88.8922 76° East 439 505 38,800 484 Climbing Chicago Center
Tue 12:49:22 PM 40.5944 -88.7111 88° East 444 511 39,000 98 Climbing Chicago Center
Tue 12:50:24 PM 40.5975 -88.5508 89° East 444 511 39,000  Level Chicago Center
Tue 12:51:26 PM 40.6000 -88.3894 89° East 445 512 39,000  Level Chicago Center
Tue 12:52:28 PM 40.6028 -88.1961 89° East 445 512 39,000  Level Chicago Center
Tue 12:53:30 PM 40.6047 -88.0344 89° East 447 514 39,000  Level Chicago Center
Tue 12:54:32 PM 40.6064 -87.8731 89° East 446 513 39,000  Level Chicago Center
Tue 12:55:34 PM 40.6075 -87.7108 89° East 449 517 39,000  Level Chicago Center
Tue 12:56:36 PM 40.6089 -87.5494 89° East 448 516 39,000  Level Chicago Center
Tue 12:57:38 PM 40.6100 -87.3544 90° East 450 518 39,000  Level Chicago Center
Tue 12:58:40 PM 40.6092 -87.1939 90° East 445 512 39,000  Level Chicago Center
Tue 12:59:42 PM 40.6094 -87.0328 90° East 445 512 39,000  Level Chicago Center
Tue 01:00:44 PM 40.6097 -86.8739 90° East 440 506 39,000  Level Chicago Center
Tue 01:01:46 PM 40.6081 -86.7117 91° East 429 494 39,000  Level Chicago Center
Tue 01:02:48 PM 40.6081 -86.5550 90° East 430 495 39,000  Level Chicago Center
Tue 01:03:50 PM 40.6067 -86.3989 91° East 428 493 39,000  Level Chicago Center
Tue 01:04:52 PM 40.6050 -86.2106 91° East 432 497 39,000  Level Chicago Center
Tue 01:05:54 PM 40.6039 -86.0522 90° East 434 499 39,000  Level Chicago Center
Tue 01:06:56 PM 40.6025 -85.8942 91° East 434 499 39,000 48 Level Chicago Center
Tue 01:07:58 PM 40.6003 -85.7358 91° East 436 502 39,100  Climbing Chicago Center
Tue 01:09:00 PM 40.5989 -85.5797 91° East 431 496 39,000 -48 Descending Chicago Center
Tue 01:10:02 PM 40.5961 -85.3925 91° East 429 494 39,000  Level Chicago Center
Tue 01:11:04 PM 40.5939 -85.2375 91° East 428 493 39,000 -56 Level Chicago Center
Tue 01:11:50 PM 40.5925 -85.1242 91° East 430 495 38,900  Descending Indianapolis Center
Tue 01:12:52 PM 40.5906 -84.9653 91° East 430 495 39,000 48 Climbing Indianapolis Center
Tue 01:13:54 PM 40.5878 -84.8058 91° East 432 497 39,000  Level Indianapolis Center
Tue 01:14:56 PM 40.5839 -84.6194 92° East 434 499 39,000  Level Indianapolis Center
Tue 01:15:58 PM 40.5808 -84.4603 91° East 431 496 39,000  Level Indianapolis Center
Tue 01:17:00 PM 40.5761 -84.3006 92° East 432 497 39,000 -48 Level Indianapolis Center
Tue 01:18:02 PM 40.5719 -84.1417 92° East 430 495 38,900  Descending Indianapolis Center
Tue 01:19:04 PM 40.5683 -83.9811 92° East 433 498 39,000 48 Climbing Indianapolis Center
Tue 01:20:06 PM 40.5633 -83.8222 92° East 431 496 39,000 -48 Level Indianapolis Center
Tue 01:21:08 PM 40.5594 -83.6639 92° East 428 493 38,900 -49 Descending Indianapolis Center
Tue 01:22:09 PM 40.5547 -83.5067 92° East 427 491 38,900  Level Indianapolis Center
Tue 01:23:11 PM 40.5494 -83.3500 92° East 424 488 38,900  Level Indianapolis Center
Tue 01:24:13 PM 40.5436 -83.1658 92° East 427 491 38,900 48 Level Indianapolis Center
Tue 01:25:15 PM 40.5392 -83.0272 92° East 426 490 39,000 48 Climbing Indianapolis Center
Tue 01:26:17 PM 40.5333 -82.8700 93° East 427 491 39,000  Level Indianapolis Center
Tue 01:27:18 PM 40.5267 -82.6883 93° East 424 488 39,000  Level Indianapolis Center
Tue 01:28:20 PM 40.5206 -82.5311 93° East 428 493 39,000  Level Indianapolis Center
Tue 01:29:22 PM 40.5142 -82.3750 93° East 426 490 39,000  Level Indianapolis Center
Tue 01:30:24 PM 40.5081 -82.2189 93° East 426 490 39,000  Level Indianapolis Center
Tue 01:31:26 PM 40.5014 -82.0606 93° East 431 496 39,000  Level Indianapolis Center
Tue 01:32:21 PM 40.4911 -81.9017 95° East 427 491 39,000  Level Cleveland Center
Tue 01:33:21 PM 40.4864 -81.7433 92° East 427 491 39,000  Level Cleveland Center
Tue 01:34:21 PM 40.4797 -81.5875 93° East 427 491 39,000  Level Cleveland Center
Tue 01:35:21 PM 40.4706 -81.4347 94° East 427 491 39,000  Level Cleveland Center
Tue 01:36:21 PM 40.4672 -81.2764 92° East 422 486 39,000  Level Cleveland Center
Tue 01:37:21 PM 40.4600 -81.1206 93° East 422 486 39,000  Level Cleveland Center
Tue 01:38:21 PM 40.4522 -80.9650 94° East 422 486 39,000  Level Cleveland Center
Tue 01:39:21 PM 40.4422 -80.8067 95° East 422 486 39,000  Level Cleveland Center
Tue 01:40:21 PM 40.4339 -80.6514 94° East 422 486 39,000  Level Cleveland Center
Tue 01:41:21 PM 40.4256 -80.5014 94° East 422 486 39,000  Level Cleveland Center
Tue 01:42:21 PM 40.4172 -80.3514 94° East 422 486 39,000  Level Cleveland Center
Tue 01:43:21 PM 40.4064 -80.1986 95° East 422 486 39,000  Level Cleveland Center
Tue 01:44:21 PM 40.3953 -80.0542 96° East 410 472 39,000  Level Cleveland Center
Tue 01:45:21 PM 40.3906 -79.9153 93° East 405 466 39,000  Level Cleveland Center
Tue 01:46:21 PM 40.3811 -79.7736 95° East 400 460 39,000  Level Cleveland Center
Tue 01:47:21 PM 40.3717 -79.6347 95° East 395 455 39,000  Level Cleveland Center
Tue 01:48:21 PM 40.3622 -79.4906 95° East 390 449 39,000  Level Cleveland Center
Tue 01:49:21 PM 40.3522 -79.3461 95° East 390 449 39,000  Level Cleveland Center
Tue 01:50:21 PM 40.3400 -79.1883 96° East 390 449 39,000  Level Cleveland Center
Tue 01:51:21 PM 40.3297 -79.0389 95° East 396 456 39,000 -400 Level Cleveland Center
Tue 01:52:21 PM 40.3217 -78.8975 94° East 396 456 38,200 -800 Descending Cleveland Center
Tue 01:53:21 PM 40.3153 -78.7533 93° East 396 456 37,400 -1,650 Descending Cleveland Center
Tue 01:54:21 PM 40.2900 -78.6178 104° East 391 450 34,900 -2,650 Descending Cleveland Center
Tue 01:55:21 PM 40.2564 -78.4911 109° East 398 458 32,100 -2,258 Descending Cleveland Center
Tue 01:57:19 PM 40.2214 -78.2011 99° East 407 468 28,200 -1,787 Descending New York Center
Tue 01:58:19 PM 40.2739 -78.0625 64° Northeast 396 456 26,800 -1,613 Descending New York Center
Tue 01:59:18 PM 40.3139 -77.9222 69° East 401 461 25,000 -1,008 Descending New York Center
Tue 02:00:18 PM 40.2997 -77.7739 97° East 400 460 24,800 -645 Descending New York Center
Tue 02:01:19 PM 40.2853 -77.6281 97° East 400 460 23,700 -1,140 Descending New York Center
Tue 02:02:19 PM 40.2664 -77.4847 100° East 400 460 22,500 -1,169 Descending New York Center
Tue 02:03:17 PM 40.2494 -77.3417 99° East 400 460 21,400 -1,169 Descending New York Center
Tue 02:04:17 PM 40.2319 -77.2067 100° East 388 447 20,200 -1,240 Descending New York Center
Tue 02:05:18 PM 40.2167 -77.0639 98° East 388 447 18,900 -1,180 Descending New York Center
Tue 02:06:19 PM 40.1969 -76.9261 101° East 382 440 17,800 -1,169 Descending New York Center
Tue 02:07:16 PM 40.1825 -76.7972 98° East 376 433 16,600 -1,109 Descending New York Center
Tue 02:08:18 PM 40.1661 -76.6681 99° East 365 420 15,600 -976 Descending New York Center
Tue 02:09:19 PM 40.1517 -76.5419 98° East 359 413 14,600 -1,041 Descending New York Center
Tue 02:10:19 PM 40.1369 -76.4131 98° East 353 406 13,500 -1,017 Descending New York Center
Tue 02:11:17 PM 40.1217 -76.2950 100° East 346 398 12,600 -908 Descending New York Center
Tue 02:12:18 PM 40.1139 -76.1939 96° East 321 369 11,700 -984 Descending New York Center
Tue 02:13:19 PM 40.1042 -76.0847 97° East 288 331 10,600 -1,160 Descending New York Center
Tue 02:14:17 PM 40.1019 -75.9950 92° East 276 318 9,400 -1,311 Descending New York Center
Tue 02:15:18 PM 40.0956 -75.9075 95° East 271 312 8,000 -738 Descending New York Center
Tue 02:16:19 PM 40.0853 -75.8036 97° East 271 312 7,900 -50 Descending New York Center
Tue 02:17:17 PM 40.0792 -75.7003 94° East 260 299 7,900 -458 Level New York Center
Tue 02:18:17 PM 40.0758 -75.6322 94° East 234 269 7,000 -942 Descending New York Center
Tue 02:19:18 PM 40.0711 -75.5450 94° East 217 250 6,000 -541 Descending New York Center
Tue 02:20:19 PM 40.0678 -75.4742 93° East 217 250 5,900  Descending New York Center
Tue 02:21:19 PM 40.0347 -75.4122 125° Southeast 190 219 6,000  Climbing New York Center
Tue 02:22:16 PM 39.9831 -75.3981 168° South 184 212 5,900 -51 Descending New York Center
Tue 02:23:17 PM 39.9306 -75.4081 188° South 202 232 5,900 -146 Level New York Center
Tue 02:24:19 PM 39.9131 -75.4800 252° West 175 201 5,600 -503 Descending New York Center
Tue 02:25:52 PM 39.8500 -75.5500 220° Southwest 166 191 4,600 -566 Descending Philadelphia TRACON
Tue 02:26:58 PM 39.8167 -75.5167 142° Southeast 164 189 4,100 -810 Descending Philadelphia TRACON
Tue 02:27:58 PM 39.8167 -75.4500 90° East 163 188 2,900 -1,050 Descending Philadelphia TRACON
Tue 02:28:58 PM 39.8333 -75.4000 67° East 163 188 2,000 -850 Descending Philadelphia TRACON
Tue 02:29:58 PM 39.8500 -75.3500 67° East 144 166 1,200 -750 Descending Philadelphia TRACON
Tue 02:30:58 PM 39.8500 -75.3000 90° East 121 139 500 -700 Descending Philadelphia TRACON
Tue 02:32:00 PM 39.8667 -75.2333 77° East  Level FlightAware Approximate
Tue 02:39:00 PM 39.8722 -75.2409 77° East  Level Estimated

Login

Don't have an account? Register now (free) for customized features, flight alerts, and more!